Time;durP1;ratioP1;P1;durP2;ratioP2;P2;SDS_P1;SDS_P2;PMS_P1;PMS_P2;Temp;Humidity;BMP_temperature;BMP_pressure;BME280_temperature;BME280_humidity;BME280_pressure;Samples;Min_cycle;Max_cycle;Signal;HPM_P1;HPM_P2
2024/01/08 00:00:31;;;;;;;1.70;1.55;;;;;;;-17.69;89.61;102428.88;10429025;28;20413;-66
2024/01/08 00:05:38;;;;;;;1.77;1.70;;;;;;;-17.61;89.63;102411.03;10418241;28;20053;-66
2024/01/08 00:10:42;;;;;;;3.05;2.28;;;;;;;-17.32;89.49;102406.47;10431234;28;20045;-66
2024/01/08 00:15:45;;;;;;;5.05;1.70;;;;;;;-17.07;90.25;102397.56;10429392;28;20060;-67
2024/01/08 00:20:49;;;;;;;1.88;1.15;;;;;;;-16.84;90.20;102393.16;10435511;28;20390;-66
2024/01/08 00:25:51;;;;;;;1.42;1.33;;;;;;;-16.73;90.34;102400.59;10416301;28;20572;-66
2024/01/08 00:30:54;;;;;;;3.30;1.50;;;;;;;-16.71;90.67;102389.09;10421803;28;20048;-66
2024/01/08 00:35:56;;;;;;;3.00;1.30;;;;;;;-16.64;91.52;102392.31;10415606;28;20049;-66
2024/01/08 00:40:58;;;;;;;1.38;1.10;;;;;;;-16.46;91.14;102365.28;10410370;28;20425;-67
2024/01/08 00:46:01;;;;;;;2.00;1.30;;;;;;;-16.27;90.84;102346.94;10444203;28;20132;-66
2024/01/08 00:51:03;;;;;;;0.90;0.90;;;;;;;-16.13;91.33;102338.47;10424813;28;20063;-68
2024/01/08 00:56:06;;;;;;;2.15;1.55;;;;;;;-15.94;91.25;102331.44;10441890;28;20045;-67
2024/01/08 01:01:09;;;;;;;1.42;1.33;;;;;;;-15.56;91.88;102321.75;10424461;28;20047;-66
2024/01/08 01:06:12;;;;;;;1.65;1.17;;;;;;;-15.27;91.81;102325.63;10431104;28;20047;-67
2024/01/08 01:11:15;;;;;;;1.33;1.00;;;;;;;-14.90;91.54;102295.72;10434008;28;20065;-68
2024/01/08 01:16:18;;;;;;;1.08;0.90;;;;;;;-14.51;92.25;102284.94;10425301;28;20042;-67
2024/01/08 01:21:21;;;;;;;1.95;0.90;;;;;;;-14.11;92.45;102282.78;10439545;28;20057;-67
2024/01/08 01:26:24;;;;;;;1.88;1.33;;;;;;;-13.72;93.38;102274.50;10410963;28;20045;-67
2024/01/08 01:31:27;;;;;;;0.50;0.50;;;;;;;-13.59;92.95;102272.03;10428993;28;20052;-67
2024/01/08 01:36:29;;;;;;;2.55;0.98;;;;;;;-13.64;93.69;102274.09;10415227;28;20409;-68
2024/01/08 01:41:32;;;;;;;0.82;0.82;;;;;;;-13.72;93.26;102277.13;10414259;28;20467;-67
2024/01/08 01:46:48;;;;;;;0.93;0.93;;;;;;;-13.68;93.08;102272.56;10415955;28;20060;-67
2024/01/08 01:51:51;;;;;;;2.67;1.75;;;;;;;-13.58;93.23;102271.09;10421820;28;20425;-67
2024/01/08 01:56:56;;;;;;;3.22;2.13;;;;;;;-13.61;93.22;102260.72;10421606;28;20547;-68
2024/01/08 02:01:59;;;;;;;5.57;2.60;;;;;;;-13.42;93.44;102253.47;10443701;28;20049;-67
2024/01/08 02:07:02;;;;;;;2.70;2.40;;;;;;;-13.33;92.83;102242.41;10437770;28;20416;-68
2024/01/08 02:12:06;;;;;;;3.13;2.38;;;;;;;-13.32;93.40;102236.16;10421877;28;20412;-68
2024/01/08 02:17:08;;;;;;;3.45;2.60;;;;;;;-13.40;93.41;102247.16;10428577;28;20033;-67
2024/01/08 02:22:12;;;;;;;4.45;2.08;;;;;;;-13.23;93.27;102237.41;10412969;28;20041;-68
2024/01/08 02:27:15;;;;;;;5.38;2.60;;;;;;;-13.19;93.19;102237.16;10419090;28;20034;-69
2024/01/08 02:32:18;;;;;;;5.45;2.47;;;;;;;-13.00;93.16;102225.50;10414638;28;20038;-68
2024/01/08 02:37:21;;;;;;;2.78;2.03;;;;;;;-12.92;92.97;102212.66;10436177;28;20390;-68
2024/01/08 02:42:23;;;;;;;5.40;2.40;;;;;;;-12.94;91.54;102204.84;10427291;28;20046;-69
2024/01/08 02:47:26;;;;;;;4.13;2.60;;;;;;;-12.89;91.09;102191.34;10449710;28;20041;-68
2024/01/08 02:52:28;;;;;;;5.20;2.63;;;;;;;-12.95;91.38;102176.72;10417861;28;20052;-68
2024/01/08 02:57:31;;;;;;;5.45;2.90;;;;;;;-12.93;91.65;102166.06;10437653;28;20049;-69
2024/01/08 03:02:33;;;;;;;6.00;2.53;;;;;;;-12.90;90.59;102161.44;10445173;28;20448;-67
2024/01/08 03:07:37;;;;;;;4.10;2.30;;;;;;;-12.85;90.63;102142.66;10435189;28;20413;-69
2024/01/08 03:12:40;;;;;;;2.95;1.65;;;;;;;-12.81;91.04;102120.41;10431849;28;20037;-68
2024/01/08 03:17:43;;;;;;;4.85;2.20;;;;;;;-12.76;90.70;102114.81;10422944;28;20060;-69
2024/01/08 03:22:45;;;;;;;4.57;2.47;;;;;;;-12.68;89.89;102108.09;10433730;28;20045;-69
2024/01/08 03:27:47;;;;;;;3.55;2.00;;;;;;;-12.60;89.78;102097.91;10441185;28;20060;-68
2024/01/08 03:32:51;;;;;;;4.60;2.38;;;;;;;-12.48;90.04;102093.66;10426896;28;20048;-69
2024/01/08 03:37:55;;;;;;;4.05;1.92;;;;;;;-12.37;90.58;102082.38;10436244;28;20042;-67
2024/01/08 03:42:57;;;;;;;4.50;2.25;;;;;;;-12.32;89.22;102067.06;10433477;28;20052;-69
2024/01/08 03:48:00;;;;;;;4.57;2.10;;;;;;;-12.29;89.46;102054.50;10437223;28;20068;-67
2024/01/08 03:53:04;;;;;;;2.78;1.80;;;;;;;-12.27;89.86;102035.91;10416626;28;20502;-67
2024/01/08 03:58:07;;;;;;;2.72;1.80;;;;;;;-12.36;89.27;102025.91;10420283;28;20041;-68
2024/01/08 04:03:09;;;;;;;5.50;2.15;;;;;;;-12.32;90.01;102012.41;10444749;28;20041;-67
2024/01/08 04:08:12;;;;;;;5.50;2.28;;;;;;;-12.37;89.64;102009.19;10431100;28;20034;-67
2024/01/08 04:13:15;;;;;;;4.22;2.55;;;;;;;-12.37;89.94;101995.97;10440783;28;20420;-67
2024/01/08 04:18:17;;;;;;;5.22;2.28;;;;;;;-12.40;90.38;101969.72;10441289;28;20033;-67
2024/01/08 04:23:19;;;;;;;4.32;2.25;;;;;;;-12.36;90.56;101959.78;10413467;28;20057;-66
2024/01/08 04:28:22;;;;;;;2.53;2.25;;;;;;;-12.30;90.62;101947.03;10431398;28;20168;-66
2024/01/08 04:33:25;;;;;;;5.22;2.50;;;;;;;-12.23;90.92;101945.66;10419139;28;20045;-67
2024/01/08 04:38:27;;;;;;;3.88;2.10;;;;;;;-12.05;91.38;101935.63;10433719;28;20497;-68
2024/01/08 04:43:29;;;;;;;3.70;2.47;;;;;;;-11.93;90.80;101924.22;10429864;28;20045;-68
2024/01/08 04:48:32;;;;;;;4.85;2.35;;;;;;;-11.80;90.68;101910.13;10425839;28;20057;-67
2024/01/08 04:53:37;;;;;;;7.05;3.25;;;;;;;-11.78;91.13;101895.84;10421144;28;20049;-67
2024/01/08 04:58:40;;;;;;;4.38;2.85;;;;;;;-11.75;90.81;101886.84;10422352;28;20041;-68
2024/01/08 05:03:43;;;;;;;3.85;2.53;;;;;;;-11.71;90.63;101880.38;10420818;28;20042;-68
2024/01/08 05:08:45;;;;;;;7.00;3.42;;;;;;;-11.61;91.52;101866.38;10424747;28;20033;-67
2024/01/08 05:13:48;;;;;;;7.50;2.88;;;;;;;-11.49;91.11;101848.75;10422713;28;20048;-67
2024/01/08 05:18:52;;;;;;;5.03;2.40;;;;;;;-11.24;91.06;101836.44;10419592;28;20513;-66
2024/01/08 05:23:54;;;;;;;4.22;2.33;;;;;;;-11.19;92.10;101819.22;10440041;28;20520;-68
2024/01/08 05:28:56;;;;;;;4.45;2.47;;;;;;;-10.92;92.27;101803.13;10425834;28;20535;-66
2024/01/08 05:33:58;;;;;;;4.78;2.65;;;;;;;-10.81;92.54;101794.34;10408166;28;20033;-67
2024/01/08 05:39:01;;;;;;;4.15;2.67;;;;;;;-10.68;92.53;101795.97;10422836;28;20041;-68
2024/01/08 05:44:04;;;;;;;4.10;2.58;;;;;;;-10.43;93.93;101791.44;10427468;28;20037;-68
2024/01/08 05:49:15;;;;;;;5.20;2.42;;;;;;;-10.38;93.69;101784.00;10425182;28;20050;-67
2024/01/08 05:54:18;;;;;;;3.15;2.28;;;;;;;-10.38;93.64;101770.75;10436084;28;20048;-68
2024/01/08 05:59:21;;;;;;;6.57;3.05;;;;;;;-10.35;94.14;101765.19;10435180;28;20072;-68
2024/01/08 06:04:24;;;;;;;6.88;3.25;;;;;;;-10.22;94.81;101744.72;10428869;28;20487;-68
2024/01/08 06:09:27;;;;;;;5.32;2.95;;;;;;;-10.10;94.94;101733.06;10441469;28;20085;-67
2024/01/08 06:14:30;;;;;;;6.40;3.35;;;;;;;-9.90;95.84;101710.25;10433637;28;20042;-68
2024/01/08 06:19:32;;;;;;;4.72;2.85;;;;;;;-9.69;96.48;101723.66;10424157;28;20037;-68
2024/01/08 06:24:34;;;;;;;4.97;3.25;;;;;;;-9.44;96.40;101696.75;10413724;28;20041;-68
2024/01/08 06:29:37;;;;;;;4.68;2.83;;;;;;;-9.26;97.54;101701.53;10430634;28;20041;-67
2024/01/08 06:34:40;;;;;;;5.65;2.65;;;;;;;-9.02;97.21;101701.28;10433893;28;20041;-67
2024/01/08 06:39:44;;;;;;;4.03;3.03;;;;;;;-8.94;97.48;101699.69;10423314;28;20040;-68
2024/01/08 06:44:46;;;;;;;4.30;2.72;;;;;;;-8.70;97.56;101694.09;10438566;28;20124;-66
2024/01/08 06:49:49;;;;;;;5.55;2.85;;;;;;;-8.59;97.95;101685.22;10427108;28;20514;-66
2024/01/08 06:54:51;;;;;;;5.93;2.80;;;;;;;-8.44;98.14;101680.41;10429356;28;20053;-66
2024/01/08 06:59:55;;;;;;;6.45;3.15;;;;;;;-8.36;98.84;101670.78;10433721;28;20037;-68
2024/01/08 07:04:57;;;;;;;4.95;2.78;;;;;;;-8.23;98.28;101679.34;10420662;28;20037;-67
2024/01/08 07:10:00;;;;;;;4.38;2.67;;;;;;;-8.09;99.12;101666.66;10441495;28;20037;-67
2024/01/08 07:15:04;;;;;;;5.25;3.17;;;;;;;-8.05;98.94;101660.06;10436435;28;20654;-67
2024/01/08 07:20:06;;;;;;;8.07;3.25;;;;;;;-8.01;98.84;101661.47;10441502;28;20045;-66
2024/01/08 07:25:09;;;;;;;5.90;2.92;;;;;;;-7.99;99.27;101663.03;10436737;28;21662;-67
2024/01/08 07:30:12;;;;;;;6.15;3.45;;;;;;;-7.91;99.23;101649.88;10447915;28;20048;-66
2024/01/08 07:35:14;;;;;;;9.15;3.40;;;;;;;-7.82;99.21;101650.88;10447478;28;20042;-67
2024/01/08 07:40:17;;;;;;;7.35;3.03;;;;;;;-7.67;99.11;101656.66;10448626;28;20033;-67
2024/01/08 07:45:20;;;;;;;5.30;2.63;;;;;;;-7.61;99.86;101651.63;10439527;28;20429;-67
2024/01/08 07:50:24;;;;;;;3.80;2.00;;;;;;;-7.15;100.00;101639.41;10466087;28;20037;-68
2024/01/08 07:55:26;;;;;;;2.38;1.60;;;;;;;-6.59;100.00;101632.47;10449285;28;20041;-68
2024/01/08 08:00:29;;;;;;;2.53;1.20;;;;;;;-6.36;100.00;101638.28;10448438;28;20037;-69
2024/01/08 08:05:31;;;;;;;2.03;1.10;;;;;;;-6.34;100.00;101641.63;10448628;28;20056;-68
2024/01/08 08:10:34;;;;;;;1.42;1.10;;;;;;;-6.39;100.00;101604.69;10447874;28;20033;-68
2024/01/08 08:15:37;;;;;;;1.40;0.90;;;;;;;-6.44;100.00;101639.81;10445341;28;20045;-68
2024/01/08 08:20:40;;;;;;;1.90;1.40;;;;;;;-6.47;100.00;101647.28;10445611;28;20132;-68
2024/01/08 08:25:42;;;;;;;1.65;1.30;;;;;;;-6.51;100.00;101644.06;10416376;28;20042;-68
2024/01/08 08:30:46;;;;;;;1.85;1.65;;;;;;;-6.58;100.00;101645.66;10443729;28;20449;-68
2024/01/08 08:35:48;;;;;;;2.17;1.33;;;;;;;-6.67;100.00;101641.16;10441157;28;20037;-68
2024/01/08 08:40:50;;;;;;;1.98;1.17;;;;;;;-6.77;100.00;101649.22;10443779;28;20042;-69
2024/01/08 08:45:53;;;;;;;3.13;1.50;;;;;;;-6.86;100.00;101634.06;10430307;28;20069;-68
2024/01/08 08:50:55;;;;;;;2.35;1.10;;;;;;;-6.93;100.00;101643.63;10405008;28;20038;-68
2024/01/08 08:55:58;;;;;;;3.42;1.20;;;;;;;-6.97;100.00;101649.38;10431879;28;20044;-68
2024/01/08 09:01:00;;;;;;;3.08;1.13;;;;;;;-6.99;100.00;101649.50;10443581;28;20037;-69
2024/01/08 09:06:03;;;;;;;1.67;1.50;;;;;;;-7.03;100.00;101635.63;10445724;28;20398;-68
2024/01/08 09:11:05;;;;;;;4.15;1.30;;;;;;;-7.09;100.00;101641.53;10424351;28;20038;-68
2024/01/08 09:16:11;;;;;;;3.35;1.30;;;;;;;-7.15;100.00;101627.91;10435711;28;20037;-67
2024/01/08 09:21:14;;;;;;;2.00;1.33;;;;;;;-7.13;100.00;101633.94;10440406;28;20505;-68
2024/01/08 09:26:16;;;;;;;1.40;1.10;;;;;;;-7.15;100.00;101631.41;10441546;28;20065;-68
2024/01/08 09:31:20;;;;;;;2.15;1.42;;;;;;;-7.16;100.00;101615.56;10444304;28;20413;-68
2024/01/08 09:36:22;;;;;;;3.28;1.40;;;;;;;-7.18;100.00;101597.03;10437912;28;20067;-68
2024/01/08 09:41:25;;;;;;;2.10;1.73;;;;;;;-7.15;100.00;101617.25;10431492;28;20037;-67
2024/01/08 09:46:30;;;;;;;2.45;1.40;;;;;;;-7.16;100.00;101616.41;10439661;28;20049;-67
2024/01/08 09:51:33;;;;;;;2.40;1.40;;;;;;;-7.15;100.00;101623.41;10442701;28;20536;-68
2024/01/08 09:56:35;;;;;;;2.05;1.13;;;;;;;-7.18;100.00;101613.03;10436076;28;20042;-67
2024/01/08 10:01:42;;;;;;;2.05;1.83;;;;;;;-7.18;100.00;101610.38;10430419;28;20033;-68
2024/01/08 10:06:45;;;;;;;2.72;1.70;;;;;;;-7.12;100.00;101622.28;10405903;28;20127;-67
2024/01/08 10:11:47;;;;;;;3.42;2.17;;;;;;;-7.15;100.00;101612.75;10440205;28;20509;-67
2024/01/08 10:16:50;;;;;;;4.13;2.10;;;;;;;-7.17;100.00;101633.38;10411017;28;20421;-68
2024/01/08 10:22:13;;;;;;;3.13;2.05;;;;;;;-7.15;100.00;101644.75;10414581;28;20045;-69
2024/01/08 10:27:17;;;;;;;3.03;1.88;;;;;;;-7.16;100.00;101634.22;10441474;28;20033;-70
2024/01/08 10:32:21;;;;;;;2.50;2.03;;;;;;;-7.19;100.00;101632.69;10440095;28;20048;-70
2024/01/08 10:37:27;;;;;;;2.25;1.77;;;;;;;-7.20;100.00;101641.69;10455336;28;20049;-69
2024/01/08 10:42:33;;;;;;;2.80;1.85;;;;;;;-7.18;100.00;101647.72;10436150;28;20512;-70
2024/01/08 10:47:38;;;;;;;3.83;2.47;;;;;;;-7.18;100.00;101638.88;10441778;28;20084;-70
2024/01/08 10:52:51;;;;;;;4.47;2.30;;;;;;;-7.13;100.00;101641.94;10400142;28;20038;-69
2024/01/08 10:58:04;;;;;;;3.00;2.17;;;;;;;-7.15;100.00;101646.56;10425993;28;20037;-69
2024/01/08 11:03:07;;;;;;;2.85;2.10;;;;;;;-7.15;100.00;101627.91;10448001;28;20053;-65
2024/01/08 11:08:11;;;;;;;3.72;2.38;;;;;;;-7.15;100.00;101618.09;10434045;28;20033;-67
2024/01/08 11:13:14;;;;;;;3.33;2.35;;;;;;;-7.22;100.00;101634.81;10434663;28;20052;-67
2024/01/08 11:18:25;;;;;;;2.65;1.33;;;;;;;-7.25;100.00;101611.09;10433677;28;20038;-68
2024/01/08 11:23:41;;;;;;;1.30;1.20;;;;;;;-7.25;100.00;101613.75;10412070;28;20045;-65
2024/01/08 11:29:00;;;;;;;2.30;1.42;;;;;;;-7.25;100.00;101606.59;10427428;28;20029;-65
2024/01/08 11:34:25;;;;;;;2.05;1.83;;;;;;;-7.24;100.00;101602.09;10438270;28;20041;-64
2024/01/08 11:39:27;;;;;;;2.05;1.15;;;;;;;-7.24;100.00;101589.63;10432680;28;20537;-67
2024/01/08 11:44:30;;;;;;;2.38;1.35;;;;;;;-7.25;100.00;101603.94;10437999;28;20048;-68
2024/01/08 11:49:33;;;;;;;2.10;1.38;;;;;;;-7.25;100.00;101601.28;10445163;28;20124;-66
2024/01/08 11:54:35;;;;;;;3.60;1.58;;;;;;;-7.24;100.00;101607.44;10447912;28;20528;-65
2024/01/08 11:59:38;;;;;;;2.72;1.02;;;;;;;-7.22;100.00;101619.66;10420199;28;20053;-66
2024/01/08 12:04:42;;;;;;;1.63;1.25;;;;;;;-7.22;100.00;101621.47;10434438;28;20482;-67
2024/01/08 12:09:47;;;;;;;2.40;1.25;;;;;;;-7.23;100.00;101622.47;10433702;28;20041;-66
2024/01/08 12:14:51;;;;;;;3.85;1.60;;;;;;;-7.19;100.00;101624.69;10423768;28;20160;-68
2024/01/08 12:19:56;;;;;;;3.00;1.40;;;;;;;-7.19;100.00;101615.84;10432281;28;20037;-66
2024/01/08 12:24:58;;;;;;;1.30;1.20;;;;;;;-7.20;100.00;101619.50;10435652;28;20042;-67
2024/01/08 12:30:01;;;;;;;1.73;1.38;;;;;;;-7.20;100.00;101625.69;10414211;28;20425;-64
2024/01/08 12:35:11;;;;;;;2.67;1.30;;;;;;;-7.18;100.00;101622.88;10447428;28;20040;-66
2024/01/08 12:40:14;;;;;;;1.67;1.25;;;;;;;-7.21;100.00;101623.16;10447299;28;20771;-64
2024/01/08 12:45:16;;;;;;;1.33;1.23;;;;;;;-7.22;100.00;101627.66;10413084;28;20473;-67
2024/01/08 12:50:19;;;;;;;1.33;1.23;;;;;;;-7.21;100.00;101636.50;10420242;28;20033;-64
2024/01/08 12:55:25;;;;;;;3.45;1.35;;;;;;;-7.21;100.00;101640.00;10446808;28;20064;-65
2024/01/08 13:00:28;;;;;;;2.30;1.35;;;;;;;-7.21;100.00;101656.00;10443662;28;20050;-67
2024/01/08 13:05:31;;;;;;;2.22;1.42;;;;;;;-7.22;100.00;101656.13;10443951;28;20060;-67
2024/01/08 13:10:34;;;;;;;2.50;2.30;;;;;;;-7.21;100.00;101645.31;10445730;28;20053;-69
2024/01/08 13:15:37;;;;;;;2.33;1.55;;;;;;;-7.22;100.00;101664.97;10445314;28;20037;-67
2024/01/08 13:20:39;;;;;;;3.25;1.38;;;;;;;-7.23;100.00;101657.97;10462100;28;20033;-66
2024/01/08 13:25:42;;;;;;;4.53;2.53;;;;;;;-7.22;100.00;101672.13;10427414;28;20049;-67
2024/01/08 13:30:44;;;;;;;2.15;1.60;;;;;;;-7.21;100.00;101671.16;10416478;28;20092;-66
2024/01/08 13:35:47;;;;;;;3.75;1.73;;;;;;;-7.21;100.00;101674.66;10451007;28;20509;-68
2024/01/08 13:40:56;;;;;;;1.38;1.15;;;;;;;-7.19;100.00;101670.03;10486095;28;20416;-65
2024/01/08 13:45:59;;;;;;;1.38;1.27;;;;;;;-7.20;100.00;101656.84;10431822;28;20056;-66
2024/01/08 13:51:04;;;;;;;2.70;2.28;;;;;;;-7.19;100.00;101661.19;10409024;28;20042;-66
2024/01/08 13:56:07;;;;;;;4.57;2.17;;;;;;;-7.19;100.00;101664.69;10434291;28;20045;-65
2024/01/08 14:01:12;;;;;;;5.18;2.45;;;;;;;-7.13;100.00;101666.78;10436150;28;20045;-67
2024/01/08 14:06:18;;;;;;;2.88;2.08;;;;;;;-7.12;100.00;101665.81;10423975;28;20045;-68
2024/01/08 14:11:39;;;;;;;2.38;1.65;;;;;;;-7.08;100.00;101667.22;10425640;28;20037;-66
2024/01/08 14:16:49;;;;;;;2.83;1.73;;;;;;;-7.06;100.00;101670.59;10430027;28;20448;-66
2024/01/08 14:21:52;;;;;;;5.00;2.47;;;;;;;-7.03;100.00;101675.63;10440206;28;20034;-67
2024/01/08 14:26:56;;;;;;;2.65;1.60;;;;;;;-7.00;100.00;101680.69;10434423;28;20046;-67
2024/01/08 14:32:01;;;;;;;2.95;2.10;;;;;;;-6.99;100.00;101687.69;10429063;28;20048;-66
2024/01/08 14:37:04;;;;;;;1.42;1.33;;;;;;;-6.95;100.00;101698.94;10445033;28;20053;-65
2024/01/08 14:42:07;;;;;;;5.68;2.22;;;;;;;-6.89;100.00;101694.88;10450512;28;20048;-66
2024/01/08 14:47:10;;;;;;;1.40;1.27;;;;;;;-6.93;100.00;101707.66;10428833;28;20060;-66
2024/01/08 14:52:12;;;;;;;3.70;1.90;;;;;;;-6.90;100.00;101710.03;10417574;28;20038;-64
2024/01/08 14:57:15;;;;;;;5.90;2.58;;;;;;;-6.84;100.00;101711.28;10445562;28;20038;-66
2024/01/08 15:02:17;;;;;;;1.95;1.60;;;;;;;-6.82;100.00;101709.31;10429425;28;20037;-66
2024/01/08 15:07:20;;;;;;;4.25;2.22;;;;;;;-6.80;100.00;101705.50;10414217;28;20529;-66
2024/01/08 15:12:23;;;;;;;5.22;2.55;;;;;;;-6.78;100.00;101708.88;10418727;28;20370;-67
2024/01/08 15:17:25;;;;;;;2.40;1.60;;;;;;;-6.74;100.00;101720.97;10442494;28;20588;-66
2024/01/08 15:22:30;;;;;;;2.38;2.08;;;;;;;-6.72;100.00;101710.16;10449080;28;20044;-67
2024/01/08 15:27:33;;;;;;;5.82;3.03;;;;;;;-6.68;100.00;101722.22;10431788;28;20049;-65
2024/01/08 15:32:35;;;;;;;3.60;2.35;;;;;;;-6.65;100.00;101727.28;10426459;28;20040;-66
2024/01/08 15:37:38;;;;;;;5.40;3.15;;;;;;;-6.59;100.00;101726.72;10430650;28;20529;-66
2024/01/08 15:42:41;;;;;;;6.55;2.40;;;;;;;-6.55;100.00;101732.63;10436013;28;20048;-65
2024/01/08 15:47:44;;;;;;;6.35;2.40;;;;;;;-6.53;100.00;101734.16;10431334;28;20046;-66
2024/01/08 15:52:49;;;;;;;6.45;2.67;;;;;;;-6.49;100.00;101729.38;10417744;28;20049;-67
2024/01/08 15:57:53;;;;;;;3.03;1.52;;;;;;;-6.43;100.00;101728.78;10416980;28;20044;-67
2024/01/08 16:02:58;;;;;;;3.08;1.90;;;;;;;-6.38;100.00;101730.06;10435653;28;20041;-65
2024/01/08 16:08:09;;;;;;;2.28;1.73;;;;;;;-6.33;100.00;101734.13;10417198;28;20042;-67
2024/01/08 16:13:11;;;;;;;4.15;2.35;;;;;;;-6.22;100.00;101733.94;10428538;28;20034;-65
2024/01/08 16:18:14;;;;;;;5.03;2.60;;;;;;;-6.19;100.00;101731.81;10423612;28;20041;-62
2024/01/08 16:23:16;;;;;;;1.50;1.40;;;;;;;-6.14;100.00;101732.22;10418928;28;20045;-63
2024/01/08 16:28:19;;;;;;;1.75;1.08;;;;;;;-6.02;100.00;101732.06;10427581;28;20045;-65
2024/01/08 16:33:21;;;;;;;1.60;1.38;;;;;;;-5.93;100.00;101723.13;10419942;28;20037;-66
2024/01/08 16:38:28;;;;;;;0.88;0.85;;;;;;;-5.92;100.00;101736.34;10433410;28;20044;-66
2024/01/08 16:43:33;;;;;;;4.63;1.30;;;;;;;-5.87;100.00;101736.75;10434508;28;20038;-66
2024/01/08 16:48:36;;;;;;;2.72;1.05;;;;;;;-5.81;100.00;101748.66;10425205;28;20041;-65
2024/01/08 16:53:40;;;;;;;0.65;0.50;;;;;;;-5.73;100.00;101750.59;10430398;28;20140;-66
2024/01/08 16:58:43;;;;;;;0.70;0.70;;;;;;;-5.74;100.00;101751.56;10426631;28;20070;-65
2024/01/08 17:03:49;;;;;;;1.95;1.05;;;;;;;-5.78;100.00;101754.56;10420508;28;20045;-67
2024/01/08 17:08:55;;;;;;;0.60;0.60;;;;;;;-5.78;99.73;101751.88;10435736;28;20053;-65
2024/01/08 17:13:57;;;;;;;0.75;0.75;;;;;;;-5.79;99.67;101760.88;10426426;28;20048;-65
2024/01/08 17:19:00;;;;;;;1.40;1.30;;;;;;;-5.78;99.32;101751.03;10432660;28;20045;-66
2024/01/08 17:24:03;;;;;;;3.85;2.00;;;;;;;-5.78;99.11;101757.22;10435476;28;20075;-66
2024/01/08 17:29:06;;;;;;;1.48;0.82;;;;;;;-5.78;98.82;101754.56;10403399;28;20040;-65
2024/01/08 17:34:08;;;;;;;1.00;0.93;;;;;;;-5.84;98.45;101752.47;10411889;28;20034;-65
2024/01/08 17:39:12;;;;;;;3.92;1.10;;;;;;;-5.94;98.60;101759.72;10419816;28;20044;-65
2024/01/08 17:44:14;;;;;;;1.17;1.10;;;;;;;-6.07;98.93;101751.19;10418142;28;20041;-65
2024/01/08 17:49:20;;;;;;;1.17;0.93;;;;;;;-6.20;98.95;101753.34;10420320;28;20049;-64
2024/01/08 17:54:23;;;;;;;2.78;0.77;;;;;;;-6.32;98.46;101762.50;10419036;28;20033;-65
2024/01/08 17:59:28;;;;;;;2.38;0.73;;;;;;;-6.43;98.71;101771.50;10411585;28;20041;-65
2024/01/08 18:04:31;;;;;;;1.48;1.33;;;;;;;-6.54;98.84;101763.66;10414331;28;20041;-65
2024/01/08 18:09:33;;;;;;;1.55;1.38;;;;;;;-6.67;99.56;101761.28;10414790;28;20037;-67
2024/01/08 18:14:36;;;;;;;2.67;1.40;;;;;;;-6.79;98.74;101773.06;10431856;28;20128;-67
2024/01/08 18:19:38;;;;;;;1.10;1.00;;;;;;;-6.86;99.25;101770.13;10441006;28;20038;-64
2024/01/08 18:24:41;;;;;;;2.08;1.85;;;;;;;-6.96;99.14;101774.63;10442877;28;20401;-65
2024/01/08 18:29:46;;;;;;;1.83;1.33;;;;;;;-7.12;99.38;101772.50;10443309;28;20037;-65
2024/01/08 18:34:48;;;;;;;2.70;1.67;;;;;;;-7.20;99.46;101768.84;10445068;28;20048;-65
2024/01/08 18:39:51;;;;;;;2.58;1.25;;;;;;;-7.29;99.36;101778.50;10442235;28;20051;-65
2024/01/08 18:44:54;;;;;;;1.23;1.10;;;;;;;-7.29;99.42;101781.16;10436828;28;20057;-64
2024/01/08 18:49:57;;;;;;;1.52;1.20;;;;;;;-7.37;99.66;101783.69;10430836;28;20054;-67
2024/01/08 18:55:00;;;;;;;1.25;1.00;;;;;;;-7.48;100.00;101791.78;10430869;28;20037;-67
2024/01/08 19:00:05;;;;;;;1.67;1.58;;;;;;;-7.58;100.00;101801.59;10432083;28;20034;-68
2024/01/08 19:05:18;;;;;;;2.63;1.67;;;;;;;-7.64;99.59;101803.78;10426611;28;20533;-69
2024/01/08 19:10:25;;;;;;;2.08;1.98;;;;;;;-7.73;99.97;101804.59;10428055;28;20037;-68
2024/01/08 19:15:27;;;;;;;6.35;2.40;;;;;;;-7.83;99.90;101810.84;10418828;28;20061;-69
2024/01/08 19:20:31;;;;;;;3.55;2.47;;;;;;;-7.87;100.00;101806.78;10425586;28;20033;-68
2024/01/08 19:25:38;;;;;;;3.65;2.20;;;;;;;-7.94;100.00;101811.81;10435059;28;20128;-70
2024/01/08 19:30:44;;;;;;;1.05;1.00;;;;;;;-7.98;100.00;101805.91;10436623;28;20041;-69
2024/01/08 19:35:47;;;;;;;4.78;2.80;;;;;;;-7.96;100.00;101808.44;10430762;28;20041;-71
2024/01/08 19:40:50;;;;;;;5.57;3.15;;;;;;;-7.99;100.00;101814.84;10436685;28;20037;-69
2024/01/08 19:45:53;;;;;;;6.70;3.58;;;;;;;-8.02;100.00;101814.25;10436742;28;20053;-68
2024/01/08 19:50:56;;;;;;;7.25;3.40;;;;;;;-8.02;100.00;101822.25;10436886;28;20034;-69
2024/01/08 19:55:59;;;;;;;5.15;2.95;;;;;;;-8.05;100.00;101818.03;10444293;28;20072;-69
2024/01/08 20:01:03;;;;;;;4.85;3.03;;;;;;;-8.06;100.00;101820.84;10443672;28;20054;-69
2024/01/08 20:06:07;;;;;;;5.47;3.10;;;;;;;-8.09;100.00;101823.78;10439092;28;20083;-67
2024/01/08 20:11:10;;;;;;;5.93;3.33;;;;;;;-8.08;100.00;101820.13;10442906;28;20486;-68
2024/01/08 20:16:13;;;;;;;5.28;2.67;;;;;;;-8.02;100.00;101808.94;10437642;28;20048;-69
2024/01/08 20:21:16;;;;;;;4.43;3.10;;;;;;;-7.99;100.00;101814.00;10433347;28;20049;-68
2024/01/08 20:26:18;;;;;;;6.40;2.70;;;;;;;-8.02;100.00;101808.94;10441413;28;20048;-68
2024/01/08 20:31:20;;;;;;;6.28;3.00;;;;;;;-8.06;100.00;101807.53;10430725;28;20038;-68
2024/01/08 20:36:23;;;;;;;5.60;3.28;;;;;;;-8.10;100.00;101806.09;10432845;28;20041;-69
2024/01/08 20:41:27;;;;;;;9.45;4.22;;;;;;;-8.16;100.00;101806.59;10438347;28;20083;-69
2024/01/08 20:46:29;;;;;;;7.43;4.20;;;;;;;-8.29;100.00;101807.69;10436791;28;20053;-69
2024/01/08 20:51:32;;;;;;;10.10;5.57;;;;;;;-8.27;100.00;101811.03;10435240;28;20034;-68
2024/01/08 20:56:34;;;;;;;9.52;6.57;;;;;;;-8.23;100.00;101811.63;10415078;28;20049;-68
2024/01/08 21:01:41;;;;;;;16.10;8.38;;;;;;;-8.13;100.00;101814.34;10416701;28;20044;-69
2024/01/08 21:06:43;;;;;;;12.00;7.75;;;;;;;-8.13;100.00;101811.69;10424557;28;20048;-68
2024/01/08 21:11:45;;;;;;;11.32;6.75;;;;;;;-8.05;100.00;101817.19;10419018;28;20034;-70
2024/01/08 21:16:48;;;;;;;4.72;3.30;;;;;;;-7.95;100.00;101804.78;10432767;28;20417;-68
2024/01/08 21:21:50;;;;;;;5.70;3.10;;;;;;;-7.80;100.00;101803.47;10439343;28;20063;-68
2024/01/08 21:26:52;;;;;;;4.25;1.92;;;;;;;-7.74;100.00;101802.91;10427688;28;20052;-68
2024/01/08 21:31:55;;;;;;;5.07;2.38;;;;;;;-7.58;100.00;101804.25;10432470;28;20041;-68
2024/01/08 21:36:58;;;;;;;3.58;1.77;;;;;;;-7.45;100.00;101802.19;10412823;28;20052;-67
2024/01/08 21:42:00;;;;;;;5.30;2.00;;;;;;;-7.31;100.00;101799.13;10430796;28;20029;-67
2024/01/08 21:47:03;;;;;;;5.40;2.47;;;;;;;-7.22;100.00;101792.13;10425701;28;20049;-67
2024/01/08 21:52:05;;;;;;;3.17;1.75;;;;;;;-7.08;100.00;101799.75;10428662;28;20038;-66
2024/01/08 21:57:08;;;;;;;4.50;1.73;;;;;;;-7.02;100.00;101789.34;10439589;28;20056;-68
2024/01/08 22:02:15;;;;;;;2.95;1.52;;;;;;;-6.89;100.00;101780.25;10431747;28;20038;-68
2024/01/08 22:07:18;;;;;;;2.55;1.60;;;;;;;-6.84;100.00;101772.66;10441699;28;20048;-68
2024/01/08 22:12:20;;;;;;;2.88;1.70;;;;;;;-6.78;100.00;101769.41;10436287;28;20029;-67
2024/01/08 22:17:23;;;;;;;0.98;0.98;;;;;;;-6.64;100.00;101769.00;10430715;28;20037;-68
2024/01/08 22:22:25;;;;;;;3.40;1.15;;;;;;;-6.54;100.00;101769.00;10424134;28;20041;-68
2024/01/08 22:27:28;;;;;;;2.30;1.00;;;;;;;-6.52;100.00;101772.38;10419882;28;20045;-67
2024/01/08 22:32:30;;;;;;;2.83;1.52;;;;;;;-6.47;100.00;101770.09;10437455;28;20033;-66
2024/01/08 22:37:32;;;;;;;2.20;1.45;;;;;;;-6.46;100.00;101761.94;10440469;28;20044;-68
2024/01/08 22:42:39;;;;;;;2.08;1.30;;;;;;;-6.44;100.00;101770.66;10440439;28;20540;-68
2024/01/08 22:47:42;;;;;;;2.40;1.40;;;;;;;-6.41;100.00;101751.72;10417819;28;20064;-67
2024/01/08 22:52:45;;;;;;;1.25;1.05;;;;;;;-6.36;100.00;101743.25;10430414;28;20115;-67
2024/01/08 22:57:48;;;;;;;2.08;1.33;;;;;;;-6.34;100.00;101732.44;10436828;28;20044;-67